sensor_id;sensor_type;location;lat;lon;timestamp;temperature;humidity
25342;DHT22;13298;48.792;9.154;2022-12-29T00:01:23;7.60;99.90
25342;DHT22;13298;48.792;9.154;2022-12-29T00:03:49;7.70;99.90
25342;DHT22;13298;48.792;9.154;2022-12-29T00:06:14;7.70;99.90
25342;DHT22;13298;48.792;9.154;2022-12-29T00:08:40;7.80;99.90
25342;DHT22;13298;48.792;9.154;2022-12-29T00:11:06;7.80;99.90
25342;DHT22;13298;48.792;9.154;2022-12-29T00:13:32;7.80;99.90
25342;DHT22;13298;48.792;9.154;2022-12-29T00:16:17;7.80;99.90
25342;DHT22;13298;48.792;9.154;2022-12-29T00:18:42;7.90;99.90
25342;DHT22;13298;48.792;9.154;2022-12-29T00:21:10;7.90;99.90
25342;DHT22;13298;48.792;9.154;2022-12-29T00:23:57;7.90;99.90
25342;DHT22;13298;48.792;9.154;2022-12-29T00:26:41;8.00;99.90
25342;DHT22;13298;48.792;9.154;2022-12-29T00:29:26;8.00;99.90
25342;DHT22;13298;48.792;9.154;2022-12-29T00:32:10;8.00;99.90
25342;DHT22;13298;48.792;9.154;2022-12-29T00:34:54;8.00;99.90
25342;DHT22;13298;48.792;9.154;2022-12-29T00:37:36;8.00;99.90
25342;DHT22;13298;48.792;9.154;2022-12-29T00:40:21;8.00;99.90
25342;DHT22;13298;48.792;9.154;2022-12-29T00:43:06;8.10;99.90
25342;DHT22;13298;48.792;9.154;2022-12-29T00:45:50;8.10;99.90
25342;DHT22;13298;48.792;9.154;2022-12-29T00:48:16;8.10;99.90
25342;DHT22;13298;48.792;9.154;2022-12-29T00:51:01;8.10;99.90
25342;DHT22;13298;48.792;9.154;2022-12-29T00:53:27;8.20;99.90
25342;DHT22;13298;48.792;9.154;2022-12-29T00:55:53;8.20;99.90
25342;DHT22;13298;48.792;9.154;2022-12-29T00:58:18;8.30;99.90
25342;DHT22;13298;48.792;9.154;2022-12-29T01:00:44;8.20;99.90
25342;DHT22;13298;48.792;9.154;2022-12-29T01:03:09;8.20;99.90
25342;DHT22;13298;48.792;9.154;2022-12-29T01:05:36;8.20;99.90
25342;DHT22;13298;48.792;9.154;2022-12-29T01:08:02;8.20;99.90
25342;DHT22;13298;48.792;9.154;2022-12-29T01:10:27;8.20;99.90
25342;DHT22;13298;48.792;9.154;2022-12-29T01:12:53;8.20;99.90
25342;DHT22;13298;48.792;9.154;2022-12-29T01:15:18;8.20;99.90
25342;DHT22;13298;48.792;9.154;2022-12-29T01:17:44;8.30;99.90
25342;DHT22;13298;48.792;9.154;2022-12-29T01:20:10;8.30;99.90
25342;DHT22;13298;48.792;9.154;2022-12-29T01:22:36;8.30;99.90
25342;DHT22;13298;48.792;9.154;2022-12-29T01:25:02;8.30;99.90
25342;DHT22;13298;48.792;9.154;2022-12-29T01:27:28;8.40;99.90
25342;DHT22;13298;48.792;9.154;2022-12-29T01:29:53;8.40;99.90
25342;DHT22;13298;48.792;9.154;2022-12-29T01:32:19;8.40;99.90
25342;DHT22;13298;48.792;9.154;2022-12-29T01:34:45;8.40;99.90
25342;DHT22;13298;48.792;9.154;2022-12-29T01:37:10;8.40;99.90
25342;DHT22;13298;48.792;9.154;2022-12-29T01:39:36;8.40;99.90
25342;DHT22;13298;48.792;9.154;2022-12-29T01:42:02;8.40;99.90
25342;DHT22;13298;48.792;9.154;2022-12-29T01:47:39;8.40;99.90
25342;DHT22;13298;48.792;9.154;2022-12-29T01:50:15;8.40;99.90
25342;DHT22;13298;48.792;9.154;2022-12-29T01:52:49;8.40;99.90
25342;DHT22;13298;48.792;9.154;2022-12-29T01:55:16;8.40;99.90
25342;DHT22;13298;48.792;9.154;2022-12-29T01:57:43;8.40;99.90
25342;DHT22;13298;48.792;9.154;2022-12-29T02:00:12;8.40;99.90
25342;DHT22;13298;48.792;9.154;2022-12-29T02:02:39;8.30;99.90
25342;DHT22;13298;48.792;9.154;2022-12-29T02:05:22;8.30;99.90
25342;DHT22;13298;48.792;9.154;2022-12-29T02:08:07;8.30;99.90
25342;DHT22;13298;48.792;9.154;2022-12-29T02:10:34;8.30;99.90
25342;DHT22;13298;48.792;9.154;2022-12-29T02:13:00;8.30;99.90
25342;DHT22;13298;48.792;9.154;2022-12-29T02:18:22;8.30;99.90
25342;DHT22;13298;48.792;9.154;2022-12-29T02:20:57;8.30;99.90
25342;DHT22;13298;48.792;9.154;2022-12-29T02:27:07;8.30;99.90
25342;DHT22;13298;48.792;9.154;2022-12-29T02:29:49;8.30;99.90
25342;DHT22;13298;48.792;9.154;2022-12-29T02:32:17;8.30;99.90
25342;DHT22;13298;48.792;9.154;2022-12-29T02:34:57;8.30;99.90
25342;DHT22;13298;48.792;9.154;2022-12-29T02:37:42;8.20;99.90
25342;DHT22;13298;48.792;9.154;2022-12-29T02:43:11;8.20;99.90
25342;DHT22;13298;48.792;9.154;2022-12-29T02:51:04;8.10;99.90
25342;DHT22;13298;48.792;9.154;2022-12-29T02:53:57;8.10;99.90
25342;DHT22;13298;48.792;9.154;2022-12-29T02:56:41;8.10;99.90
25342;DHT22;13298;48.792;9.154;2022-12-29T02:59:07;8.20;99.90
25342;DHT22;13298;48.792;9.154;2022-12-29T03:01:53;8.20;99.90
25342;DHT22;13298;48.792;9.154;2022-12-29T03:05:05;8.30;99.90
25342;DHT22;13298;48.792;9.154;2022-12-29T03:10:10;8.30;99.90
25342;DHT22;13298;48.792;9.154;2022-12-29T03:15:28;8.40;99.90
25342;DHT22;13298;48.792;9.154;2022-12-29T03:18:22;8.40;99.90
25342;DHT22;13298;48.792;9.154;2022-12-29T03:21:01;8.40;99.90
25342;DHT22;13298;48.792;9.154;2022-12-29T03:23:30;8.50;99.90
25342;DHT22;13298;48.792;9.154;2022-12-29T03:25:57;8.60;99.90
25342;DHT22;13298;48.792;9.154;2022-12-29T03:28:25;8.70;99.90
25342;DHT22;13298;48.792;9.154;2022-12-29T03:30:54;8.80;99.90
25342;DHT22;13298;48.792;9.154;2022-12-29T03:33:22;8.90;99.90
25342;DHT22;13298;48.792;9.154;2022-12-29T03:35:49;9.00;99.90
25342;DHT22;13298;48.792;9.154;2022-12-29T03:38:23;9.10;99.90
25342;DHT22;13298;48.792;9.154;2022-12-29T03:40:55;9.10;99.90
25342;DHT22;13298;48.792;9.154;2022-12-29T03:43:22;9.20;99.90
25342;DHT22;13298;48.792;9.154;2022-12-29T03:45:48;9.20;99.90
25342;DHT22;13298;48.792;9.154;2022-12-29T03:48:14;9.40;99.90
25342;DHT22;13298;48.792;9.154;2022-12-29T03:50:39;9.40;99.90
25342;DHT22;13298;48.792;9.154;2022-12-29T03:53:05;9.50;99.90
25342;DHT22;13298;48.792;9.154;2022-12-29T03:55:31;9.60;99.90
25342;DHT22;13298;48.792;9.154;2022-12-29T03:57:56;9.60;99.90
25342;DHT22;13298;48.792;9.154;2022-12-29T04:00:22;9.60;99.90
25342;DHT22;13298;48.792;9.154;2022-12-29T04:02:47;9.50;99.90
25342;DHT22;13298;48.792;9.154;2022-12-29T04:05:13;9.40;99.90
25342;DHT22;13298;48.792;9.154;2022-12-29T04:07:39;9.40;99.90
25342;DHT22;13298;48.792;9.154;2022-12-29T04:10:04;9.30;99.90
25342;DHT22;13298;48.792;9.154;2022-12-29T04:12:30;9.20;99.90
25342;DHT22;13298;48.792;9.154;2022-12-29T04:14:56;9.20;99.90
25342;DHT22;13298;48.792;9.154;2022-12-29T04:17:21;9.10;99.90
25342;DHT22;13298;48.792;9.154;2022-12-29T04:19:47;9.00;99.90
25342;DHT22;13298;48.792;9.154;2022-12-29T04:22:13;9.00;99.90
25342;DHT22;13298;48.792;9.154;2022-12-29T04:24:38;9.00;99.90
25342;DHT22;13298;48.792;9.154;2022-12-29T04:27:04;9.10;99.90
25342;DHT22;13298;48.792;9.154;2022-12-29T04:29:29;9.30;99.90
25342;DHT22;13298;48.792;9.154;2022-12-29T04:31:55;9.30;99.90
25342;DHT22;13298;48.792;9.154;2022-12-29T04:34:21;9.40;99.90
25342;DHT22;13298;48.792;9.154;2022-12-29T04:36:46;9.50;99.90
25342;DHT22;13298;48.792;9.154;2022-12-29T04:39:12;9.60;99.90
25342;DHT22;13298;48.792;9.154;2022-12-29T04:41:38;9.60;99.90
25342;DHT22;13298;48.792;9.154;2022-12-29T04:44:03;9.60;99.90
25342;DHT22;13298;48.792;9.154;2022-12-29T04:46:29;9.50;99.90
25342;DHT22;13298;48.792;9.154;2022-12-29T04:48:54;9.50;99.90
25342;DHT22;13298;48.792;9.154;2022-12-29T04:51:20;9.40;99.90
25342;DHT22;13298;48.792;9.154;2022-12-29T04:53:46;9.30;99.90
25342;DHT22;13298;48.792;9.154;2022-12-29T04:56:11;9.30;99.90
25342;DHT22;13298;48.792;9.154;2022-12-29T04:58:37;9.30;99.90
25342;DHT22;13298;48.792;9.154;2022-12-29T05:01:02;9.30;99.90
25342;DHT22;13298;48.792;9.154;2022-12-29T05:03:28;9.30;99.90
25342;DHT22;13298;48.792;9.154;2022-12-29T05:05:54;9.30;99.90
25342;DHT22;13298;48.792;9.154;2022-12-29T05:08:20;9.30;99.90
25342;DHT22;13298;48.792;9.154;2022-12-29T05:10:46;9.30;99.90
25342;DHT22;13298;48.792;9.154;2022-12-29T05:13:12;9.20;99.90
25342;DHT22;13298;48.792;9.154;2022-12-29T05:15:37;9.20;99.90
25342;DHT22;13298;48.792;9.154;2022-12-29T05:18:03;9.20;99.90
25342;DHT22;13298;48.792;9.154;2022-12-29T05:20:28;9.30;99.90
25342;DHT22;13298;48.792;9.154;2022-12-29T05:22:54;9.20;99.90
25342;DHT22;13298;48.792;9.154;2022-12-29T05:25:20;9.20;99.90
25342;DHT22;13298;48.792;9.154;2022-12-29T05:27:45;9.20;99.90
25342;DHT22;13298;48.792;9.154;2022-12-29T05:30:11;9.20;99.90
25342;DHT22;13298;48.792;9.154;2022-12-29T05:32:37;9.20;99.90
25342;DHT22;13298;48.792;9.154;2022-12-29T05:35:03;9.20;99.90
25342;DHT22;13298;48.792;9.154;2022-12-29T05:37:29;9.20;99.90
25342;DHT22;13298;48.792;9.154;2022-12-29T05:39:54;9.20;99.90
25342;DHT22;13298;48.792;9.154;2022-12-29T05:42:20;9.30;99.90
25342;DHT22;13298;48.792;9.154;2022-12-29T05:44:46;9.30;99.90
25342;DHT22;13298;48.792;9.154;2022-12-29T05:47:11;9.30;99.90
25342;DHT22;13298;48.792;9.154;2022-12-29T05:49:37;9.20;99.90
25342;DHT22;13298;48.792;9.154;2022-12-29T05:52:03;9.30;99.90
25342;DHT22;13298;48.792;9.154;2022-12-29T05:54:28;9.30;99.90
25342;DHT22;13298;48.792;9.154;2022-12-29T05:56:54;9.40;99.90
25342;DHT22;13298;48.792;9.154;2022-12-29T05:59:19;9.40;99.90
25342;DHT22;13298;48.792;9.154;2022-12-29T06:01:45;9.50;99.90
25342;DHT22;13298;48.792;9.154;2022-12-29T06:04:11;9.60;99.90
25342;DHT22;13298;48.792;9.154;2022-12-29T06:06:36;9.70;99.90
25342;DHT22;13298;48.792;9.154;2022-12-29T06:09:02;9.70;99.90
25342;DHT22;13298;48.792;9.154;2022-12-29T06:11:27;9.70;99.90
25342;DHT22;13298;48.792;9.154;2022-12-29T06:13:53;9.60;99.90
25342;DHT22;13298;48.792;9.154;2022-12-29T06:16:19;9.50;99.90
25342;DHT22;13298;48.792;9.154;2022-12-29T06:18:44;9.40;99.90
25342;DHT22;13298;48.792;9.154;2022-12-29T06:21:10;9.30;99.90
25342;DHT22;13298;48.792;9.154;2022-12-29T06:23:36;9.20;99.90
25342;DHT22;13298;48.792;9.154;2022-12-29T06:26:01;9.20;99.90
25342;DHT22;13298;48.792;9.154;2022-12-29T06:28:27;9.10;99.90
25342;DHT22;13298;48.792;9.154;2022-12-29T06:30:52;9.10;99.90
25342;DHT22;13298;48.792;9.154;2022-12-29T06:33:18;9.10;99.90
25342;DHT22;13298;48.792;9.154;2022-12-29T06:35:44;9.10;99.90
25342;DHT22;13298;48.792;9.154;2022-12-29T06:38:11;9.10;99.90
25342;DHT22;13298;48.792;9.154;2022-12-29T06:40:36;9.10;99.90
25342;DHT22;13298;48.792;9.154;2022-12-29T06:43:02;9.10;99.90
25342;DHT22;13298;48.792;9.154;2022-12-29T06:45:27;9.20;99.90
25342;DHT22;13298;48.792;9.154;2022-12-29T06:47:53;9.20;99.90
25342;DHT22;13298;48.792;9.154;2022-12-29T06:50:19;9.10;99.90
25342;DHT22;13298;48.792;9.154;2022-12-29T06:52:44;9.20;99.90
25342;DHT22;13298;48.792;9.154;2022-12-29T06:55:10;9.20;99.90
25342;DHT22;13298;48.792;9.154;2022-12-29T06:57:35;9.10;99.90
25342;DHT22;13298;48.792;9.154;2022-12-29T07:00:02;9.10;99.90
25342;DHT22;13298;48.792;9.154;2022-12-29T07:02:28;9.10;99.90
25342;DHT22;13298;48.792;9.154;2022-12-29T07:04:54;9.10;99.90
25342;DHT22;13298;48.792;9.154;2022-12-29T07:07:20;8.90;99.90
25342;DHT22;13298;48.792;9.154;2022-12-29T07:09:45;8.90;99.90
25342;DHT22;13298;48.792;9.154;2022-12-29T07:12:11;8.80;99.90
25342;DHT22;13298;48.792;9.154;2022-12-29T07:14:37;8.70;99.90
25342;DHT22;13298;48.792;9.154;2022-12-29T07:17:02;8.60;99.90
25342;DHT22;13298;48.792;9.154;2022-12-29T07:19:31;8.50;99.90
25342;DHT22;13298;48.792;9.154;2022-12-29T07:21:57;8.40;99.90
25342;DHT22;13298;48.792;9.154;2022-12-29T07:24:23;8.40;99.90
25342;DHT22;13298;48.792;9.154;2022-12-29T07:26:51;8.40;99.90
25342;DHT22;13298;48.792;9.154;2022-12-29T07:29:17;8.30;99.90
25342;DHT22;13298;48.792;9.154;2022-12-29T07:31:42;8.30;99.90
25342;DHT22;13298;48.792;9.154;2022-12-29T07:34:08;8.30;99.90
25342;DHT22;13298;48.792;9.154;2022-12-29T07:36:34;8.30;99.90
25342;DHT22;13298;48.792;9.154;2022-12-29T07:38:59;8.30;99.90
25342;DHT22;13298;48.792;9.154;2022-12-29T07:41:25;8.30;99.90
25342;DHT22;13298;48.792;9.154;2022-12-29T07:43:50;8.30;99.90
25342;DHT22;13298;48.792;9.154;2022-12-29T07:46:16;8.20;99.90
25342;DHT22;13298;48.792;9.154;2022-12-29T07:48:42;8.10;99.90
25342;DHT22;13298;48.792;9.154;2022-12-29T07:51:07;8.10;99.90
25342;DHT22;13298;48.792;9.154;2022-12-29T07:53:33;8.00;99.90
25342;DHT22;13298;48.792;9.154;2022-12-29T07:55:58;8.00;99.90
25342;DHT22;13298;48.792;9.154;2022-12-29T07:58:24;8.10;99.90
25342;DHT22;13298;48.792;9.154;2022-12-29T08:00:56;8.10;99.90
25342;DHT22;13298;48.792;9.154;2022-12-29T08:03:22;8.10;99.90
25342;DHT22;13298;48.792;9.154;2022-12-29T08:05:48;8.20;99.90
25342;DHT22;13298;48.792;9.154;2022-12-29T08:08:13;8.20;99.90
25342;DHT22;13298;48.792;9.154;2022-12-29T08:10:39;8.20;99.90
25342;DHT22;13298;48.792;9.154;2022-12-29T08:13:05;8.20;99.90
25342;DHT22;13298;48.792;9.154;2022-12-29T08:15:30;8.30;99.90
25342;DHT22;13298;48.792;9.154;2022-12-29T08:17:56;8.30;99.90
25342;DHT22;13298;48.792;9.154;2022-12-29T08:20:21;8.30;99.90
25342;DHT22;13298;48.792;9.154;2022-12-29T08:22:47;8.40;99.90
25342;DHT22;13298;48.792;9.154;2022-12-29T08:25:13;8.50;99.90
25342;DHT22;13298;48.792;9.154;2022-12-29T08:27:39;8.50;99.90
25342;DHT22;13298;48.792;9.154;2022-12-29T08:30:05;8.50;99.90
25342;DHT22;13298;48.792;9.154;2022-12-29T08:32:31;8.50;99.90
25342;DHT22;13298;48.792;9.154;2022-12-29T08:34:57;8.60;99.90
25342;DHT22;13298;48.792;9.154;2022-12-29T08:37:22;8.60;99.90
25342;DHT22;13298;48.792;9.154;2022-12-29T08:39:48;8.60;99.90
25342;DHT22;13298;48.792;9.154;2022-12-29T08:42:13;8.60;99.90
25342;DHT22;13298;48.792;9.154;2022-12-29T08:44:39;8.60;99.90
25342;DHT22;13298;48.792;9.154;2022-12-29T08:47:05;8.50;99.90
25342;DHT22;13298;48.792;9.154;2022-12-29T08:49:31;8.60;99.90
25342;DHT22;13298;48.792;9.154;2022-12-29T08:51:58;8.50;99.90
25342;DHT22;13298;48.792;9.154;2022-12-29T08:54:24;8.60;99.90
25342;DHT22;13298;48.792;9.154;2022-12-29T08:56:49;8.60;99.90
25342;DHT22;13298;48.792;9.154;2022-12-29T08:59:15;8.70;99.90
25342;DHT22;13298;48.792;9.154;2022-12-29T09:01:41;8.80;99.90
25342;DHT22;13298;48.792;9.154;2022-12-29T09:04:07;8.90;99.90
25342;DHT22;13298;48.792;9.154;2022-12-29T09:06:33;9.00;99.90
25342;DHT22;13298;48.792;9.154;2022-12-29T09:08:58;9.10;99.90
25342;DHT22;13298;48.792;9.154;2022-12-29T09:11:24;9.20;99.90
25342;DHT22;13298;48.792;9.154;2022-12-29T09:13:51;9.30;99.90
25342;DHT22;13298;48.792;9.154;2022-12-29T09:16:17;9.50;99.90
25342;DHT22;13298;48.792;9.154;2022-12-29T09:18:43;9.80;99.90
25342;DHT22;13298;48.792;9.154;2022-12-29T09:21:10;10.00;99.90
25342;DHT22;13298;48.792;9.154;2022-12-29T09:23:36;10.20;99.90
25342;DHT22;13298;48.792;9.154;2022-12-29T09:26:02;10.40;99.90
25342;DHT22;13298;48.792;9.154;2022-12-29T09:28:28;10.60;99.90
25342;DHT22;13298;48.792;9.154;2022-12-29T09:30:55;10.80;99.90
25342;DHT22;13298;48.792;9.154;2022-12-29T09:33:22;11.00;99.90
25342;DHT22;13298;48.792;9.154;2022-12-29T09:35:52;11.10;99.90
25342;DHT22;13298;48.792;9.154;2022-12-29T09:38:20;11.30;99.90
25342;DHT22;13298;48.792;9.154;2022-12-29T09:40:49;11.50;99.90
25342;DHT22;13298;48.792;9.154;2022-12-29T09:48:33;11.80;99.90
25342;DHT22;13298;48.792;9.154;2022-12-29T09:51:02;12.00;99.90
25342;DHT22;13298;48.792;9.154;2022-12-29T09:53:35;12.10;99.90
25342;DHT22;13298;48.792;9.154;2022-12-29T09:56:03;12.30;99.90
25342;DHT22;13298;48.792;9.154;2022-12-29T09:58:40;12.50;99.90
25342;DHT22;13298;48.792;9.154;2022-12-29T10:03:46;12.60;99.90
25342;DHT22;13298;48.792;9.154;2022-12-29T10:06:15;12.60;99.90
25342;DHT22;13298;48.792;9.154;2022-12-29T10:08:49;12.50;99.90
25342;DHT22;13298;48.792;9.154;2022-12-29T10:22:57;12.30;99.90
25342;DHT22;13298;48.792;9.154;2022-12-29T10:25:46;12.40;99.90
25342;DHT22;13298;48.792;9.154;2022-12-29T10:28:21;12.40;99.90
25342;DHT22;13298;48.792;9.154;2022-12-29T10:30:48;12.50;99.90
25342;DHT22;13298;48.792;9.154;2022-12-29T10:33:19;12.50;99.90
25342;DHT22;13298;48.792;9.154;2022-12-29T10:35:46;12.50;99.90
25342;DHT22;13298;48.792;9.154;2022-12-29T10:38:26;12.60;99.90
25342;DHT22;13298;48.792;9.154;2022-12-29T10:40:57;12.60;99.90
25342;DHT22;13298;48.792;9.154;2022-12-29T10:46:18;13.00;99.90
25342;DHT22;13298;48.792;9.154;2022-12-29T10:48:47;13.20;99.90
25342;DHT22;13298;48.792;9.154;2022-12-29T10:51:22;13.30;99.90
25342;DHT22;13298;48.792;9.154;2022-12-29T10:53:55;13.30;99.90
25342;DHT22;13298;48.792;9.154;2022-12-29T10:56:44;13.30;99.90
25342;DHT22;13298;48.792;9.154;2022-12-29T10:59:20;13.30;99.90
25342;DHT22;13298;48.792;9.154;2022-12-29T11:01:57;13.30;99.90
25342;DHT22;13298;48.792;9.154;2022-12-29T11:07:00;13.50;99.90
25342;DHT22;13298;48.792;9.154;2022-12-29T11:09:29;13.40;99.90
25342;DHT22;13298;48.792;9.154;2022-12-29T11:11:56;13.40;99.90
25342;DHT22;13298;48.792;9.154;2022-12-29T11:14:26;13.40;99.90
25342;DHT22;13298;48.792;9.154;2022-12-29T11:17:01;13.40;99.90
25342;DHT22;13298;48.792;9.154;2022-12-29T11:19:29;13.40;99.90
25342;DHT22;13298;48.792;9.154;2022-12-29T11:22:11;13.40;99.90
25342;DHT22;13298;48.792;9.154;2022-12-29T11:24:49;13.40;99.90
25342;DHT22;13298;48.792;9.154;2022-12-29T11:29:43;13.40;99.90
25342;DHT22;13298;48.792;9.154;2022-12-29T11:32:28;13.40;99.90
25342;DHT22;13298;48.792;9.154;2022-12-29T11:34:57;13.30;99.90
25342;DHT22;13298;48.792;9.154;2022-12-29T11:37:28;13.30;99.90
25342;DHT22;13298;48.792;9.154;2022-12-29T11:40:02;13.30;99.90
25342;DHT22;13298;48.792;9.154;2022-12-29T11:45:19;13.00;99.90
25342;DHT22;13298;48.792;9.154;2022-12-29T11:47:49;12.80;99.90
25342;DHT22;13298;48.792;9.154;2022-12-29T11:50:18;12.70;99.90
25342;DHT22;13298;48.792;9.154;2022-12-29T11:52:46;12.60;99.90
25342;DHT22;13298;48.792;9.154;2022-12-29T11:55:21;12.40;99.90
25342;DHT22;13298;48.792;9.154;2022-12-29T11:57:50;12.30;99.90
25342;DHT22;13298;48.792;9.154;2022-12-29T12:00:16;12.20;99.90
25342;DHT22;13298;48.792;9.154;2022-12-29T12:02:48;12.10;99.90
25342;DHT22;13298;48.792;9.154;2022-12-29T12:07:50;11.90;99.90
25342;DHT22;13298;48.792;9.154;2022-12-29T12:10:29;11.90;99.90
25342;DHT22;13298;48.792;9.154;2022-12-29T12:13:01;11.80;99.90
25342;DHT22;13298;48.792;9.154;2022-12-29T12:15:36;11.80;99.90
25342;DHT22;13298;48.792;9.154;2022-12-29T12:20:48;11.80;99.90
25342;DHT22;13298;48.792;9.154;2022-12-29T12:26:16;11.90;99.90
25342;DHT22;13298;48.792;9.154;2022-12-29T12:29:01;11.90;99.90
25342;DHT22;13298;48.792;9.154;2022-12-29T12:34:32;12.00;99.90
25342;DHT22;13298;48.792;9.154;2022-12-29T12:43:04;12.20;99.90
25342;DHT22;13298;48.792;9.154;2022-12-29T12:45:42;12.20;99.90
25342;DHT22;13298;48.792;9.154;2022-12-29T12:48:25;12.30;99.90
25342;DHT22;13298;48.792;9.154;2022-12-29T12:53:40;12.30;99.90
25342;DHT22;13298;48.792;9.154;2022-12-29T12:59:14;12.50;99.90
25342;DHT22;13298;48.792;9.154;2022-12-29T13:01:50;12.60;99.90
25342;DHT22;13298;48.792;9.154;2022-12-29T13:04:48;12.60;99.90
25342;DHT22;13298;48.792;9.154;2022-12-29T13:12:55;12.40;99.90
25342;DHT22;13298;48.792;9.154;2022-12-29T13:21:00;12.60;99.90
25342;DHT22;13298;48.792;9.154;2022-12-29T13:29:40;12.80;99.90
25342;DHT22;13298;48.792;9.154;2022-12-29T13:32:50;12.70;99.90
25342;DHT22;13298;48.792;9.154;2022-12-29T13:38:09;12.40;99.90
25342;DHT22;13298;48.792;9.154;2022-12-29T13:40:38;12.30;99.90
25342;DHT22;13298;48.792;9.154;2022-12-29T13:43:06;12.20;99.90
25342;DHT22;13298;48.792;9.154;2022-12-29T13:45:32;12.10;99.90
25342;DHT22;13298;48.792;9.154;2022-12-29T13:50:34;12.00;99.90
25342;DHT22;13298;48.792;9.154;2022-12-29T13:53:03;12.00;99.90
25342;DHT22;13298;48.792;9.154;2022-12-29T13:56:19;12.00;99.90
25342;DHT22;13298;48.792;9.154;2022-12-29T13:58:52;12.00;99.90
25342;DHT22;13298;48.792;9.154;2022-12-29T14:01:40;11.90;99.90
25342;DHT22;13298;48.792;9.154;2022-12-29T14:04:13;12.00;99.90
25342;DHT22;13298;48.792;9.154;2022-12-29T14:06:39;11.90;99.90
25342;DHT22;13298;48.792;9.154;2022-12-29T14:11:57;11.90;99.90
25342;DHT22;13298;48.792;9.154;2022-12-29T14:14:24;11.90;99.90
25342;DHT22;13298;48.792;9.154;2022-12-29T14:16:52;11.90;99.90
25342;DHT22;13298;48.792;9.154;2022-12-29T14:19:19;11.90;99.90
25342;DHT22;13298;48.792;9.154;2022-12-29T14:21:52;11.80;99.90
25342;DHT22;13298;48.792;9.154;2022-12-29T14:24:27;11.80;99.90
25342;DHT22;13298;48.792;9.154;2022-12-29T14:37:24;11.50;99.90
25342;DHT22;13298;48.792;9.154;2022-12-29T14:40:03;11.40;99.90
25342;DHT22;13298;48.792;9.154;2022-12-29T14:42:29;11.20;99.90
25342;DHT22;13298;48.792;9.154;2022-12-29T14:44:58;11.10;99.90
25342;DHT22;13298;48.792;9.154;2022-12-29T14:47:34;11.00;99.90
25342;DHT22;13298;48.792;9.154;2022-12-29T14:50:11;10.90;99.90
25342;DHT22;13298;48.792;9.154;2022-12-29T14:57:47;10.80;99.90
25342;DHT22;13298;48.792;9.154;2022-12-29T15:02:48;10.80;99.90
25342;DHT22;13298;48.792;9.154;2022-12-29T15:05:42;10.80;99.90
25342;DHT22;13298;48.792;9.154;2022-12-29T15:08:10;10.70;99.90
25342;DHT22;13298;48.792;9.154;2022-12-29T15:10:42;10.60;99.90
25342;DHT22;13298;48.792;9.154;2022-12-29T15:13:15;10.50;99.90
25342;DHT22;13298;48.792;9.154;2022-12-29T15:15:43;10.40;99.90
25342;DHT22;13298;48.792;9.154;2022-12-29T15:18:21;10.30;99.90
25342;DHT22;13298;48.792;9.154;2022-12-29T15:20:51;10.20;99.90
25342;DHT22;13298;48.792;9.154;2022-12-29T15:23:20;10.10;99.90
25342;DHT22;13298;48.792;9.154;2022-12-29T15:25:56;10.00;99.90
25342;DHT22;13298;48.792;9.154;2022-12-29T15:28:23;10.00;99.90
25342;DHT22;13298;48.792;9.154;2022-12-29T15:31:11;10.00;99.90
25342;DHT22;13298;48.792;9.154;2022-12-29T15:34:07;9.90;99.90
25342;DHT22;13298;48.792;9.154;2022-12-29T15:36:39;10.00;99.90
25342;DHT22;13298;48.792;9.154;2022-12-29T15:39:18;10.00;99.90
25342;DHT22;13298;48.792;9.154;2022-12-29T15:41:55;10.00;99.90
25342;DHT22;13298;48.792;9.154;2022-12-29T15:44:43;10.10;99.90
25342;DHT22;13298;48.792;9.154;2022-12-29T15:47:14;10.20;99.90
25342;DHT22;13298;48.792;9.154;2022-12-29T15:49:42;10.30;99.90
25342;DHT22;13298;48.792;9.154;2022-12-29T15:52:09;10.40;99.90
25342;DHT22;13298;48.792;9.154;2022-12-29T15:54:35;10.40;99.90
25342;DHT22;13298;48.792;9.154;2022-12-29T15:57:01;10.40;99.90
25342;DHT22;13298;48.792;9.154;2022-12-29T15:59:31;10.30;99.90
25342;DHT22;13298;48.792;9.154;2022-12-29T16:01:59;10.20;99.90
25342;DHT22;13298;48.792;9.154;2022-12-29T16:04:27;10.00;99.90
25342;DHT22;13298;48.792;9.154;2022-12-29T16:06:59;9.90;99.90
25342;DHT22;13298;48.792;9.154;2022-12-29T16:09:30;9.70;99.90
25342;DHT22;13298;48.792;9.154;2022-12-29T16:12:04;9.60;99.90
25342;DHT22;13298;48.792;9.154;2022-12-29T16:14:37;9.50;99.90
25342;DHT22;13298;48.792;9.154;2022-12-29T16:17:09;9.30;99.90
25342;DHT22;13298;48.792;9.154;2022-12-29T16:19:38;9.30;99.90
25342;DHT22;13298;48.792;9.154;2022-12-29T16:22:12;9.30;99.90
25342;DHT22;13298;48.792;9.154;2022-12-29T16:24:40;9.20;99.90
25342;DHT22;13298;48.792;9.154;2022-12-29T16:27:07;9.10;99.90
25342;DHT22;13298;48.792;9.154;2022-12-29T16:29:39;9.00;99.90
25342;DHT22;13298;48.792;9.154;2022-12-29T16:32:22;9.00;99.90
25342;DHT22;13298;48.792;9.154;2022-12-29T16:34:52;9.00;99.90
25342;DHT22;13298;48.792;9.154;2022-12-29T16:37:33;8.90;99.90
25342;DHT22;13298;48.792;9.154;2022-12-29T16:42:46;9.00;99.90
25342;DHT22;13298;48.792;9.154;2022-12-29T16:50:35;9.00;99.90
25342;DHT22;13298;48.792;9.154;2022-12-29T16:53:02;9.00;99.90
25342;DHT22;13298;48.792;9.154;2022-12-29T16:55:28;9.10;99.90
25342;DHT22;13298;48.792;9.154;2022-12-29T16:57:54;9.10;99.90
25342;DHT22;13298;48.792;9.154;2022-12-29T17:00:24;9.00;99.90
25342;DHT22;13298;48.792;9.154;2022-12-29T17:02:52;9.00;99.90
25342;DHT22;13298;48.792;9.154;2022-12-29T17:05:20;9.00;99.90
25342;DHT22;13298;48.792;9.154;2022-12-29T17:07:46;9.00;99.90
25342;DHT22;13298;48.792;9.154;2022-12-29T17:10:11;8.90;99.90
25342;DHT22;13298;48.792;9.154;2022-12-29T17:12:39;8.80;99.90
25342;DHT22;13298;48.792;9.154;2022-12-29T17:17:47;8.80;99.90
25342;DHT22;13298;48.792;9.154;2022-12-29T17:20:15;8.80;99.90
25342;DHT22;13298;48.792;9.154;2022-12-29T17:22:46;8.80;99.90
25342;DHT22;13298;48.792;9.154;2022-12-29T17:25:19;8.70;99.90
25342;DHT22;13298;48.792;9.154;2022-12-29T17:27:51;8.70;99.90
25342;DHT22;13298;48.792;9.154;2022-12-29T17:30:20;8.60;99.90
25342;DHT22;13298;48.792;9.154;2022-12-29T17:32:48;8.60;99.90
25342;DHT22;13298;48.792;9.154;2022-12-29T17:35:17;8.60;99.90
25342;DHT22;13298;48.792;9.154;2022-12-29T17:37:43;8.50;99.90
25342;DHT22;13298;48.792;9.154;2022-12-29T17:40:12;8.50;99.90
25342;DHT22;13298;48.792;9.154;2022-12-29T17:42:41;8.50;99.90
25342;DHT22;13298;48.792;9.154;2022-12-29T17:45:19;8.50;99.90
25342;DHT22;13298;48.792;9.154;2022-12-29T17:47:45;8.50;99.90
25342;DHT22;13298;48.792;9.154;2022-12-29T17:50:12;8.50;99.90
25342;DHT22;13298;48.792;9.154;2022-12-29T17:52:39;8.50;99.90
25342;DHT22;13298;48.792;9.154;2022-12-29T17:55:06;8.50;99.90
25342;DHT22;13298;48.792;9.154;2022-12-29T17:57:34;8.50;99.90
25342;DHT22;13298;48.792;9.154;2022-12-29T17:59:59;8.50;99.90
25342;DHT22;13298;48.792;9.154;2022-12-29T18:02:27;8.60;99.90
25342;DHT22;13298;48.792;9.154;2022-12-29T18:04:55;8.50;99.90
25342;DHT22;13298;48.792;9.154;2022-12-29T18:07:21;8.50;99.90
25342;DHT22;13298;48.792;9.154;2022-12-29T18:09:47;8.50;99.90